Time;durP1;ratioP1;P1;durP2;ratioP2;P2;SDS_P1;SDS_P2;PMS_P1;PMS_P2;Temp;Humidity;BMP_temperature;BMP_pressure;BME280_temperature;BME280_humidity;BME280_pressure;Samples;Min_cycle;Max_cycle;Signal;HPM_P1;HPM_P2
2022/06/07 00:02:24;;;;;;;1.10;1.00;;;;;;;20.64;61.13;98640.44;5040077;27;103011;-60
2022/06/07 00:04:53;;;;;;;1.30;1.00;;;;;;;20.69;60.63;98632.69;5039363;27;102905;-60
2022/06/07 00:07:25;;;;;;;1.10;1.00;;;;;;;20.64;60.46;98630.53;5040434;27;102919;-60
2022/06/07 00:09:53;;;;;;;1.50;1.38;;;;;;;20.60;60.89;98641.81;5036386;27;103286;-60
2022/06/07 00:12:22;;;;;;;1.20;0.93;;;;;;;20.72;60.99;98637.69;5039792;27;103239;-60
2022/06/07 00:14:51;;;;;;;1.40;1.10;;;;;;;20.81;60.20;98639.34;5039538;27;102882;-61
2022/06/07 00:17:19;;;;;;;1.30;1.20;;;;;;;20.57;60.13;98639.47;5035825;27;102842;-60
2022/06/07 00:19:48;;;;;;;1.48;1.23;;;;;;;20.43;60.62;98637.53;5037714;27;104137;-59
2022/06/07 00:22:17;;;;;;;1.42;1.20;;;;;;;20.37;61.21;98635.53;5036390;27;104133;-60
2022/06/07 00:24:45;;;;;;;1.38;1.13;;;;;;;20.47;60.06;98641.50;5038228;27;104040;-60
2022/06/07 00:27:14;;;;;;;2.30;1.23;;;;;;;20.52;60.24;98642.66;5040168;27;103870;-60
2022/06/07 00:29:46;;;;;;;1.50;1.30;;;;;;;20.26;61.04;98641.28;5037537;27;104204;-60
2022/06/07 00:32:18;;;;;;;1.63;1.35;;;;;;;20.31;60.83;98644.28;5034418;27;104161;-60
2022/06/07 00:34:47;;;;;;;1.70;1.20;;;;;;;20.52;60.10;98652.59;5034044;27;102910;-60
2022/06/07 00:37:15;;;;;;;1.20;1.10;;;;;;;20.52;60.55;98653.41;5038670;27;102743;-60
2022/06/07 00:39:43;;;;;;;1.50;1.30;;;;;;;20.43;60.37;98645.56;5036419;27;104437;-60
2022/06/07 00:42:11;;;;;;;1.30;1.10;;;;;;;20.39;60.26;98647.75;5039974;27;103193;-61
2022/06/07 00:44:41;;;;;;;1.10;1.00;;;;;;;20.33;60.18;98652.97;5035440;27;102783;-61
2022/06/07 00:47:13;;;;;;;3.03;1.20;;;;;;;20.12;60.59;98654.38;5034957;27;105061;-60
2022/06/07 00:49:45;;;;;;;2.05;1.00;;;;;;;20.38;60.20;98653.31;5039057;27;104094;-61
2022/06/07 00:52:14;;;;;;;1.23;1.13;;;;;;;20.23;60.78;98648.63;5039827;27;103883;-60
2022/06/07 00:54:42;;;;;;;1.33;1.00;;;;;;;19.97;60.75;98648.03;5035016;27;102800;-60
2022/06/07 00:57:31;;;;;;;2.65;1.15;;;;;;;19.89;60.41;98649.91;5026730;27;102938;-60
2022/06/07 01:00:04;;;;;;;1.75;1.10;;;;;;;20.03;60.28;98647.34;5034477;27;105425;-60
2022/06/07 01:02:33;;;;;;;0.90;0.80;;;;;;;20.02;59.91;98650.19;5033432;27;103471;-60
2022/06/07 01:05:03;;;;;;;1.10;0.80;;;;;;;20.07;59.96;98643.31;5033098;27;102801;-60
2022/06/07 01:13:15;;;;;;;1.80;0.90;;;;;;;19.78;62.48;98643.06;5037343;27;104969;-60
2022/06/07 01:15:45;;;;;;;1.10;1.00;;;;;;;19.91;63.05;98638.00;5035653;27;102928;-60
2022/06/07 01:18:16;;;;;;;0.80;0.80;;;;;;;19.73;63.87;98640.06;5039406;27;102782;-60
2022/06/07 01:20:47;;;;;;;1.35;0.90;;;;;;;19.67;64.11;98640.72;5054450;27;104264;-61
2022/06/07 01:23:17;;;;;;;1.63;0.97;;;;;;;19.54;64.36;98635.03;5037362;27;104417;-60
2022/06/07 01:25:46;;;;;;;2.53;1.10;;;;;;;19.43;64.18;98643.41;5035402;27;103367;-60
2022/06/07 01:28:14;;;;;;;1.75;0.90;;;;;;;19.45;63.77;98638.75;5037623;27;104020;-60
2022/06/07 01:30:42;;;;;;;0.90;0.80;;;;;;;19.75;63.34;98638.03;5036898;27;103881;-60
2022/06/07 01:33:10;;;;;;;0.80;0.65;;;;;;;19.89;63.08;98640.00;5038838;27;104196;-60
2022/06/07 01:35:38;;;;;;;1.23;1.00;;;;;;;19.79;62.79;98643.91;5035854;27;103028;-61
2022/06/07 01:38:06;;;;;;;1.20;0.80;;;;;;;19.94;62.62;98648.38;5035987;27;104091;-61
2022/06/07 01:43:21;;;;;;;1.33;0.85;;;;;;;19.93;63.29;98640.53;5035372;27;104188;-60
2022/06/07 01:45:49;;;;;;;1.38;0.88;;;;;;;19.66;63.53;98642.56;5037559;27;102847;-60
2022/06/07 01:48:20;;;;;;;2.73;0.90;;;;;;;19.59;63.55;98638.06;5038400;27;104420;-60
2022/06/07 01:50:48;;;;;;;1.10;0.80;;;;;;;19.56;64.81;98633.84;5036162;27;104190;-60
2022/06/07 01:53:15;;;;;;;1.15;0.95;;;;;;;19.48;66.75;98635.72;5037072;27;104275;-60
2022/06/07 01:55:47;;;;;;;1.00;0.90;;;;;;;19.61;67.37;98646.75;5037302;27;102837;-59
2022/06/07 01:58:18;;;;;;;0.93;0.70;;;;;;;19.39;68.75;98642.09;5033068;27;104011;-60
2022/06/07 02:00:46;;;;;;;1.80;0.90;;;;;;;19.41;68.97;98637.38;5038206;27;104292;-62
2022/06/07 02:03:14;;;;;;;0.70;0.70;;;;;;;19.54;68.27;98635.03;5034954;27;105462;-60
2022/06/07 02:05:42;;;;;;;0.80;0.70;;;;;;;19.53;68.19;98628.00;5042348;27;102642;-60
2022/06/07 02:08:10;;;;;;;1.20;0.70;;;;;;;19.52;68.48;98626.31;5040789;27;103897;-60
2022/06/07 02:10:39;;;;;;;1.52;0.88;;;;;;;19.49;69.06;98632.88;5036428;27;106743;-60
2022/06/07 02:13:19;;;;;;;1.80;0.87;;;;;;;19.33;69.73;98622.13;5040591;27;104187;-60
2022/06/07 02:15:47;;;;;;;1.50;0.80;;;;;;;19.41;69.31;98624.84;5038279;27;102939;-60
2022/06/07 02:18:16;;;;;;;2.00;1.00;;;;;;;19.40;69.49;98623.16;5036040;27;104128;-61
2022/06/07 02:21:05;;;;;;;1.23;0.73;;;;;;;19.37;69.31;98611.91;5039734;27;103291;-60
2022/06/07 02:23:35;;;;;;;1.55;0.80;;;;;;;19.27;69.20;98619.28;5039118;27;105107;-60
2022/06/07 02:26:07;;;;;;;0.80;0.80;;;;;;;19.13;70.65;98606.56;5037997;27;102678;-60
2022/06/07 02:28:40;;;;;;;1.88;0.98;;;;;;;18.87;72.75;98610.22;5039315;27;103783;-60
2022/06/07 02:31:10;;;;;;;1.40;0.70;;;;;;;18.76;73.29;98607.00;5039330;27;103297;-60
2022/06/07 02:33:40;;;;;;;1.05;0.90;;;;;;;18.86;73.55;98597.81;5030175;27;104311;-60
2022/06/07 02:36:10;;;;;;;0.80;0.80;;;;;;;18.88;73.35;98595.84;5040072;27;102708;-64
2022/06/07 02:38:39;;;;;;;0.73;0.73;;;;;;;19.05;72.75;98600.19;5039190;27;103975;-60
2022/06/07 02:41:10;;;;;;;1.52;0.80;;;;;;;18.83;73.48;98597.31;5036034;27;103915;-64
2022/06/07 02:43:39;;;;;;;1.70;1.07;;;;;;;18.52;74.13;98597.09;5035469;27;103250;-60
2022/06/07 02:46:07;;;;;;;1.20;0.70;;;;;;;18.69;74.12;98603.31;5041173;27;102881;-64
2022/06/07 02:48:38;;;;;;;0.77;0.77;;;;;;;18.71;74.13;98604.84;5040016;27;102663;-64
2022/06/07 02:51:06;;;;;;;0.80;0.80;;;;;;;18.75;74.20;98587.44;5041246;27;103228;-65
2022/06/07 02:53:34;;;;;;;2.22;1.00;;;;;;;18.70;74.11;98581.75;5035918;27;103248;-64
2022/06/07 02:56:03;;;;;;;0.75;0.60;;;;;;;18.82;73.86;98580.44;5040080;27;102776;-64
2022/06/07 02:58:33;;;;;;;1.05;0.90;;;;;;;18.77;73.91;98572.06;5040444;27;104247;-65
2022/06/07 03:01:07;;;;;;;0.70;0.70;;;;;;;18.88;73.20;98585.13;5041213;27;103242;-65
2022/06/07 03:03:40;;;;;;;1.70;1.00;;;;;;;18.93;73.76;98577.44;5040207;27;103343;-64
2022/06/07 03:06:11;;;;;;;1.05;0.90;;;;;;;18.85;74.69;98574.75;5036620;27;102732;-64
2022/06/07 03:08:39;;;;;;;1.13;0.95;;;;;;;18.86;74.94;98584.44;5037773;27;104191;-65
2022/06/07 03:11:07;;;;;;;0.82;0.80;;;;;;;18.91;74.70;98579.44;5041008;27;104107;-65
2022/06/07 03:13:39;;;;;;;1.10;1.00;;;;;;;18.80;73.95;98581.59;5038726;27;103401;-65
2022/06/07 03:16:16;;;;;;;0.87;0.87;;;;;;;18.92;73.91;98591.81;5039582;27;102830;-65
2022/06/07 03:18:45;;;;;;;1.70;1.00;;;;;;;18.67;73.61;98587.41;5036242;27;102799;-61
2022/06/07 03:21:13;;;;;;;1.98;0.90;;;;;;;18.71;74.30;98594.13;5038315;27;103438;-60
2022/06/07 03:23:44;;;;;;;1.45;1.02;;;;;;;18.68;72.76;98594.44;5038624;27;102948;-60
2022/06/07 03:26:14;;;;;;;0.93;0.90;;;;;;;18.44;74.96;98591.69;5039136;27;102644;-60
2022/06/07 03:28:50;;;;;;;1.70;0.80;;;;;;;18.71;73.99;98588.78;5039510;27;103978;-60
2022/06/07 03:31:21;;;;;;;1.00;0.90;;;;;;;18.74;73.54;98585.78;5034651;27;104228;-61
2022/06/07 03:33:53;;;;;;;1.00;0.80;;;;;;;18.85;73.33;98584.59;5038820;27;103302;-60
2022/06/07 03:36:25;;;;;;;1.77;1.08;;;;;;;18.59;73.82;98584.72;5039357;27;102719;-60
2022/06/07 03:38:55;;;;;;;0.80;0.80;;;;;;;18.66;73.60;98591.13;5038979;27;103651;-59
2022/06/07 03:41:28;;;;;;;0.98;0.88;;;;;;;18.75;72.96;98584.75;5040026;27;103739;-59
2022/06/07 03:44:14;;;;;;;1.48;1.23;;;;;;;18.63;73.71;98583.41;5037475;27;103208;-59
2022/06/07 03:46:49;;;;;;;1.58;1.00;;;;;;;18.64;73.50;98584.25;5035797;27;102759;-60
2022/06/07 03:49:20;;;;;;;1.30;1.15;;;;;;;18.19;74.53;98584.59;5039773;27;104194;-60
2022/06/07 03:51:51;;;;;;;1.55;1.00;;;;;;;18.35;75.38;98582.81;5035873;27;103290;-59
2022/06/07 03:54:19;;;;;;;1.58;0.95;;;;;;;18.51;74.27;98582.03;5036641;27;103267;-59
2022/06/07 03:56:50;;;;;;;1.57;1.00;;;;;;;18.32;75.01;98588.47;5036537;27;102748;-60
2022/06/07 03:59:22;;;;;;;0.70;0.70;;;;;;;18.63;73.88;98593.28;5039055;27;104065;-60
2022/06/07 04:01:51;;;;;;;1.27;0.90;;;;;;;18.78;73.35;98589.78;5039863;27;104437;-60
2022/06/07 04:04:20;;;;;;;0.70;0.70;;;;;;;18.88;72.62;98578.94;5033643;27;103774;-59
2022/06/07 04:09:39;;;;;;;0.70;0.70;;;;;;;18.99;72.27;98582.13;5036807;27;102686;-60
2022/06/07 04:12:15;;;;;;;0.70;0.70;;;;;;;19.02;73.00;98594.34;5036873;27;104075;-59
2022/06/07 04:14:46;;;;;;;0.85;0.80;;;;;;;19.02;72.26;98597.84;5039030;27;103510;-60
2022/06/07 04:17:17;;;;;;;1.23;0.90;;;;;;;19.01;73.23;98595.31;5037171;27;102743;-60
2022/06/07 04:19:51;;;;;;;1.65;1.10;;;;;;;18.95;72.90;98599.50;5035588;27;102701;-59
2022/06/07 04:22:21;;;;;;;1.00;0.90;;;;;;;18.97;72.45;98588.66;5035277;27;104535;-59
2022/06/07 04:24:55;;;;;;;1.10;0.98;;;;;;;18.98;72.06;98593.81;5037568;27;105941;-59
2022/06/07 04:27:24;;;;;;;1.63;1.00;;;;;;;18.99;71.90;98595.50;5027120;27;103278;-59
2022/06/07 04:29:56;;;;;;;1.13;0.80;;;;;;;19.00;71.65;98599.84;5029137;27;102967;-59
2022/06/07 04:32:26;;;;;;;1.40;0.80;;;;;;;19.00;71.28;98594.47;5027997;27;103218;-59
2022/06/07 04:34:55;;;;;;;0.65;0.65;;;;;;;19.07;71.60;98600.88;5026046;27;105221;-59
2022/06/07 04:37:25;;;;;;;2.05;1.10;;;;;;;18.88;72.05;98601.19;5029054;27;102692;-59
2022/06/07 04:39:59;;;;;;;1.20;1.10;;;;;;;18.49;71.45;98600.94;5028649;27;104093;-59
2022/06/07 04:42:30;;;;;;;0.70;0.70;;;;;;;18.85;71.67;98603.34;5031296;27;104674;-59
2022/06/07 04:45:06;;;;;;;0.68;0.63;;;;;;;19.01;71.56;98601.53;5031545;27;103467;-59
2022/06/07 04:47:52;;;;;;;0.70;0.70;;;;;;;19.10;71.19;98600.53;5026706;27;102807;-59
2022/06/07 04:50:21;;;;;;;0.73;0.70;;;;;;;19.05;71.57;98600.19;5027138;27;104314;-59
2022/06/07 04:52:49;;;;;;;1.00;0.90;;;;;;;19.08;69.87;98602.56;5028173;27;104091;-58
2022/06/07 04:55:18;;;;;;;1.00;0.80;;;;;;;19.12;70.21;98600.34;5032696;27;105481;-59
2022/06/07 04:57:46;;;;;;;0.70;0.70;;;;;;;19.17;69.50;98611.41;5033531;27;102693;-59
2022/06/07 05:00:19;;;;;;;0.70;0.68;;;;;;;19.09;69.91;98608.72;5028325;27;103112;-59
2022/06/07 05:02:57;;;;;;;0.80;0.70;;;;;;;19.03;71.04;98610.22;5028415;27;105209;-59
2022/06/07 05:05:30;;;;;;;1.15;0.90;;;;;;;18.95;71.72;98620.91;5029778;27;104074;-59
2022/06/07 05:08:04;;;;;;;1.33;0.90;;;;;;;19.02;71.16;98613.91;5033133;27;102687;-59
2022/06/07 05:10:32;;;;;;;1.00;0.90;;;;;;;19.09;71.25;98616.75;5030646;27;103805;-59
2022/06/07 05:13:03;;;;;;;2.10;0.90;;;;;;;19.08;71.35;98618.63;5028023;27;103205;-60
2022/06/07 05:15:37;;;;;;;1.08;0.80;;;;;;;19.00;71.58;98626.59;5029742;27;104215;-60
2022/06/07 05:18:10;;;;;;;1.30;0.70;;;;;;;18.99;71.88;98627.63;5035133;27;102678;-59
2022/06/07 05:20:41;;;;;;;1.17;0.90;;;;;;;18.96;72.00;98630.63;5031326;27;102941;-59
2022/06/07 05:23:13;;;;;;;2.13;1.00;;;;;;;18.96;72.09;98630.63;5030915;27;105881;-60
2022/06/07 05:25:53;;;;;;;1.23;0.90;;;;;;;19.06;71.79;98639.34;5033293;27;103539;-67
2022/06/07 05:28:22;;;;;;;1.67;1.00;;;;;;;19.03;71.46;98637.00;5029724;27;102678;-67
2022/06/07 05:30:51;;;;;;;1.30;0.70;;;;;;;19.20;71.09;98634.34;5026992;27;105313;-68
2022/06/07 05:33:28;;;;;;;1.20;0.98;;;;;;;19.39;69.87;98642.09;5036085;27;103378;-67
2022/06/07 05:35:59;;;;;;;1.40;0.70;;;;;;;19.55;69.90;98639.38;5035236;27;103227;-68
2022/06/07 05:38:27;;;;;;;2.00;1.20;;;;;;;19.55;67.94;98642.06;5039168;27;103095;-68
2022/06/07 05:41:10;;;;;;;2.20;1.00;;;;;;;19.54;67.82;98646.59;5025007;27;104977;-67
2022/06/07 05:43:39;;;;;;;1.30;0.98;;;;;;;19.68;66.96;98637.88;5026359;27;103069;-68
2022/06/07 05:46:17;;;;;;;1.42;0.85;;;;;;;19.77;66.32;98646.72;5041530;27;103415;-68
2022/06/07 05:48:58;;;;;;;1.43;0.80;;;;;;;19.82;67.69;98641.69;5033733;27;102775;-68
2022/06/07 05:51:40;;;;;;;1.20;0.90;;;;;;;19.96;66.53;98641.00;5039645;27;104080;-68
2022/06/07 05:54:12;;;;;;;1.10;0.93;;;;;;;20.17;66.28;98643.97;5037574;27;105403;-68
2022/06/07 05:56:41;;;;;;;1.05;0.88;;;;;;;20.26;66.02;98646.66;5031456;27;105237;-68
2022/06/07 05:59:10;;;;;;;1.73;0.90;;;;;;;20.11;65.41;98639.28;5040298;27;102965;-68
2022/06/07 06:01:39;;;;;;;1.50;0.90;;;;;;;19.92;66.00;98645.03;5032098;27;102756;-59
2022/06/07 06:04:10;;;;;;;0.95;0.80;;;;;;;20.15;65.26;98648.63;5029023;27;104085;-59
2022/06/07 06:06:44;;;;;;;1.33;0.80;;;;;;;20.33;65.43;98645.78;5036046;27;103289;-59
2022/06/07 06:12:01;;;;;;;1.05;0.80;;;;;;;20.43;65.62;98645.56;5051636;27;102847;-68
2022/06/07 06:14:50;;;;;;;1.88;1.05;;;;;;;20.30;63.58;98653.31;5029415;27;105193;-68
2022/06/07 06:17:24;;;;;;;1.75;0.88;;;;;;;20.39;62.93;98652.28;5019250;27;105826;-68
2022/06/07 06:20:00;;;;;;;1.40;0.70;;;;;;;20.47;63.81;98654.94;5032732;27;103222;-69
2022/06/07 06:22:28;;;;;;;0.73;0.70;;;;;;;20.78;61.98;98653.94;5033154;27;104490;-69
2022/06/07 06:25:01;;;;;;;0.70;0.70;;;;;;;20.78;63.07;98653.09;5036070;27;105915;-68
2022/06/07 06:27:32;;;;;;;0.70;0.70;;;;;;;21.03;62.14;98646.56;5034429;27;105352;-68
2022/06/07 06:30:04;;;;;;;0.73;0.70;;;;;;;21.00;61.54;98641.56;5030927;27;105414;-68
2022/06/07 06:32:33;;;;;;;2.50;0.90;;;;;;;20.91;61.70;98637.28;5038905;27;104247;-68
2022/06/07 06:35:05;;;;;;;1.10;0.70;;;;;;;21.04;61.81;98642.88;5040033;27;103864;-68
2022/06/07 06:37:35;;;;;;;1.10;0.77;;;;;;;20.86;62.45;98647.69;5039541;27;103330;-68
2022/06/07 06:40:09;;;;;;;1.60;0.93;;;;;;;20.23;62.75;98645.97;5040002;27;102880;-68
2022/06/07 06:42:47;;;;;;;1.00;0.80;;;;;;;20.37;61.98;98646.28;5039377;27;102641;-68
2022/06/07 06:45:34;;;;;;;1.53;0.90;;;;;;;20.55;63.78;98649.53;5040136;27;103504;-68
2022/06/07 06:48:10;;;;;;;1.13;0.82;;;;;;;20.87;62.50;98652.06;5030736;27;105957;-68
2022/06/07 06:50:40;;;;;;;2.47;0.90;;;;;;;20.80;63.19;98656.44;5036971;27;102821;-68
2022/06/07 06:53:09;;;;;;;1.38;0.80;;;;;;;20.68;61.62;98660.56;5040691;27;102712;-68
2022/06/07 06:55:43;;;;;;;2.00;0.80;;;;;;;20.42;63.50;98655.47;5036684;27;105276;-68
2022/06/07 06:58:13;;;;;;;1.55;0.93;;;;;;;20.82;60.62;98659.81;5038668;27;105269;-68
2022/06/07 07:00:42;;;;;;;1.55;0.88;;;;;;;20.58;61.52;98652.72;5036808;27;102712;-68
2022/06/07 07:03:10;;;;;;;1.40;0.90;;;;;;;20.82;61.58;98654.44;5037327;27;103931;-68
2022/06/07 07:05:52;;;;;;;2.30;1.00;;;;;;;21.13;59.89;98652.59;5016592;27;104301;-68
2022/06/07 07:08:26;;;;;;;1.38;0.90;;;;;;;20.90;60.55;98659.75;5030784;27;104067;-68
2022/06/07 07:11:07;;;;;;;1.60;0.80;;;;;;;21.33;59.76;98651.09;5020731;27;102766;-69
2022/06/07 07:13:37;;;;;;;2.73;1.00;;;;;;;20.71;60.35;98644.09;5029331;27;102966;-68
2022/06/07 07:16:08;;;;;;;6.73;1.40;;;;;;;21.21;61.14;98643.63;5030601;27;104340;-68
2022/06/07 07:18:36;;;;;;;2.35;0.90;;;;;;;21.54;59.26;98642.34;5027493;27;104842;-68
2022/06/07 07:21:11;;;;;;;3.13;1.10;;;;;;;21.51;60.99;98645.41;5019525;27;105148;-68
2022/06/07 07:23:40;;;;;;;3.15;0.82;;;;;;;21.54;59.65;98639.66;5020511;27;103620;-68
2022/06/07 07:26:13;;;;;;;0.95;0.80;;;;;;;21.27;58.52;98643.78;5020490;27;105355;-66
2022/06/07 07:28:42;;;;;;;1.67;0.73;;;;;;;21.83;57.88;98639.75;5031499;27;104274;-69
2022/06/07 07:31:14;;;;;;;1.33;0.70;;;;;;;22.02;55.82;98643.78;5030143;27;103135;-69
2022/06/07 07:33:45;;;;;;;1.40;0.90;;;;;;;21.99;57.52;98644.13;5030845;27;104538;-68
2022/06/07 07:36:16;;;;;;;2.60;0.80;;;;;;;22.18;56.57;98635.50;5015253;27;105111;-69
2022/06/07 07:38:44;;;;;;;2.27;0.90;;;;;;;22.37;55.22;98637.63;5040968;27;103312;-68
2022/06/07 07:41:19;;;;;;;1.55;0.98;;;;;;;21.22;58.11;98639.94;5030402;27;103488;-68
2022/06/07 07:43:49;;;;;;;2.20;0.80;;;;;;;22.16;56.59;98634.03;5032742;27;104428;-69
2022/06/07 07:46:24;;;;;;;1.15;0.73;;;;;;;22.67;56.22;98635.78;5029930;27;104129;-68
2022/06/07 07:48:52;;;;;;;1.17;0.80;;;;;;;23.06;55.61;98638.94;5022577;27;104445;-69
2022/06/07 07:51:24;;;;;;;0.90;0.70;;;;;;;23.61;54.94;98626.59;5035386;27;102654;-69
2022/06/07 07:53:55;;;;;;;2.22;1.10;;;;;;;23.10;53.74;98634.81;5029766;27;103144;-69
2022/06/07 07:56:24;;;;;;;1.20;0.80;;;;;;;23.53;51.91;98624.88;5024783;27;104226;-69
2022/06/07 07:58:53;;;;;;;1.60;0.80;;;;;;;22.90;52.73;98628.41;5032456;27;105890;-69
2022/06/07 08:01:24;;;;;;;1.60;0.70;;;;;;;23.69;50.38;98622.94;5036535;27;102898;-69
2022/06/07 08:03:54;;;;;;;1.70;0.70;;;;;;;23.24;50.44;98635.81;5036130;27;104164;-69
2022/06/07 08:06:32;;;;;;;1.58;0.70;;;;;;;23.25;51.79;98625.81;5034574;27;105890;-69
2022/06/07 08:09:03;;;;;;;5.20;1.05;;;;;;;23.21;51.55;98619.16;5035626;27;103082;-69
2022/06/07 08:11:34;;;;;;;1.55;0.90;;;;;;;23.73;52.28;98624.19;5032550;27;102740;-69
2022/06/07 08:14:06;;;;;;;1.33;0.80;;;;;;;23.15;51.48;98620.78;5036883;27;102712;-69
2022/06/07 08:16:34;;;;;;;1.00;0.63;;;;;;;24.09;50.20;98631.13;5035652;27;104204;-69
2022/06/07 08:19:08;;;;;;;1.00;0.70;;;;;;;24.42;49.84;98619.69;5037724;27;103296;-70
2022/06/07 08:21:39;;;;;;;1.65;0.82;;;;;;;23.84;48.52;98626.34;5021283;27;102787;-65
2022/06/07 08:24:08;;;;;;;1.27;0.70;;;;;;;22.75;50.55;98624.06;5036637;27;103243;-65
2022/06/07 08:26:36;;;;;;;1.73;0.90;;;;;;;22.21;50.27;98619.00;5023068;27;103265;-60
2022/06/07 08:29:05;;;;;;;1.25;0.93;;;;;;;23.49;50.72;98612.84;5037802;27;104208;-61
2022/06/07 08:31:35;;;;;;;1.43;0.70;;;;;;;24.45;51.11;98614.72;5028080;27;103082;-60
2022/06/07 08:39:39;;;;;;;1.27;0.70;;;;;;;24.31;47.88;98629.19;5037782;27;104048;-60
2022/06/07 08:42:17;;;;;;;3.05;0.70;;;;;;;25.06;47.84;98628.28;5028863;27;102645;-62
2022/06/07 08:44:48;;;;;;;1.80;0.70;;;;;;;24.97;47.26;98624.09;5036568;27;104475;-60
2022/06/07 08:47:20;;;;;;;1.50;0.80;;;;;;;24.24;48.66;98622.94;5038635;27;104358;-60
2022/06/07 08:49:48;;;;;;;1.15;0.90;;;;;;;24.04;50.90;98617.38;5033455;27;103176;-61
2022/06/07 08:52:23;;;;;;;3.00;1.20;;;;;;;24.01;49.57;98614.25;5037644;27;102634;-60
2022/06/07 08:54:58;;;;;;;1.85;0.88;;;;;;;23.30;51.94;98616.13;5037180;27;104704;-61
2022/06/07 08:57:31;;;;;;;1.80;1.00;;;;;;;23.38;50.70;98607.13;5039662;27;103212;-61
2022/06/07 09:00:14;;;;;;;2.10;1.40;;;;;;;23.76;50.84;98603.06;5022177;27;103169;-61
2022/06/07 09:03:21;;;;;;;4.05;1.65;;;;;;;24.21;48.52;98602.56;5031128;27;102932;-60
2022/06/07 09:05:57;;;;;;;1.80;0.80;;;;;;;26.08;46.03;98590.84;4997336;27;103531;-61
2022/06/07 09:08:34;;;;;;;1.83;1.02;;;;;;;25.16;46.94;98590.84;5034974;27;103224;-61
2022/06/07 09:13:54;;;;;;;1.70;0.80;;;;;;;23.42;49.29;98595.75;5035121;27;102674;-60
2022/06/07 09:16:22;;;;;;;1.27;1.00;;;;;;;26.27;47.07;98584.59;5035013;27;102943;-58
2022/06/07 09:18:52;;;;;;;2.13;1.03;;;;;;;26.07;47.66;98579.19;5035888;27;103273;-58
2022/06/07 09:21:30;;;;;;;2.45;0.93;;;;;;;26.90;46.43;98570.13;5032637;27;104117;-58
2022/06/07 09:24:02;;;;;;;1.90;1.25;;;;;;;24.44;50.24;98586.06;5035104;27;102676;-58
2022/06/07 09:26:32;;;;;;;1.67;0.90;;;;;;;24.66;48.46;98575.97;5035755;27;103825;-58
2022/06/07 09:29:09;;;;;;;2.13;0.88;;;;;;;24.68;48.40;98574.72;5021710;27;103276;-60
2022/06/07 09:31:41;;;;;;;1.90;0.80;;;;;;;24.64;47.41;98570.78;5024856;27;103595;-61
2022/06/07 09:34:21;;;;;;;5.40;1.67;;;;;;;25.24;47.21;98563.63;5029921;27;102677;-61
2022/06/07 09:36:57;;;;;;;1.77;0.90;;;;;;;25.71;44.95;98563.41;5029466;27;104079;-60
2022/06/07 09:39:33;;;;;;;2.38;0.90;;;;;;;25.79;45.96;98565.94;5032197;27;104156;-56
2022/06/07 09:42:10;;;;;;;1.30;0.80;;;;;;;25.88;43.73;98558.44;5035091;27;103219;-56
2022/06/07 09:44:40;;;;;;;1.17;0.70;;;;;;;26.63;43.79;98557.75;5030575;27;102707;-56
2022/06/07 09:47:13;;;;;;;2.22;0.75;;;;;;;27.12;41.73;98550.81;5030539;27;103342;-58
2022/06/07 09:49:44;;;;;;;1.60;0.77;;;;;;;26.27;42.21;98552.09;5029825;27;104267;-58
2022/06/07 09:52:17;;;;;;;2.17;0.70;;;;;;;24.51;43.69;98553.66;5035341;27;103243;-57
2022/06/07 09:54:50;;;;;;;0.87;0.60;;;;;;;24.44;45.72;98559.06;5033941;27;102976;-66
2022/06/07 09:57:35;;;;;;;1.10;0.68;;;;;;;23.93;46.34;98555.03;5033242;27;104088;-61
2022/06/07 10:00:23;;;;;;;1.85;0.82;;;;;;;24.73;46.21;98564.13;5034146;27;104506;-60
2022/06/07 10:03:20;;;;;;;2.38;0.90;;;;;;;25.15;46.06;98554.06;5034724;27;103461;-61
2022/06/07 10:06:06;;;;;;;2.75;0.70;;;;;;;25.18;45.38;98545.56;5026606;27;102604;-61
2022/06/07 10:08:49;;;;;;;2.88;0.88;;;;;;;24.83;46.03;98542.16;5033279;27;103557;-62
2022/06/07 10:11:25;;;;;;;1.33;0.80;;;;;;;26.29;44.86;98540.00;5034196;27;104219;-60
2022/06/07 10:14:06;;;;;;;8.30;1.40;;;;;;;25.79;43.99;98540.75;5035882;27;103166;-59
2022/06/07 10:16:49;;;;;;;1.23;0.60;;;;;;;23.88;47.19;98539.47;5016327;27;104350;-60
2022/06/07 10:19:32;;;;;;;3.40;0.80;;;;;;;23.90;46.77;98542.78;5034815;27;103837;-59
2022/06/07 10:22:25;;;;;;;1.33;0.83;;;;;;;24.05;47.78;98545.38;5037665;27;104532;-59
2022/06/07 10:25:09;;;;;;;2.30;0.77;;;;;;;24.59;45.47;98532.72;5036431;27;104499;-60
2022/06/07 10:27:51;;;;;;;0.73;0.57;;;;;;;26.12;45.90;98532.53;5032008;27;102838;-59
2022/06/07 10:30:26;;;;;;;1.98;1.30;;;;;;;25.48;42.35;98535.16;5039855;27;103719;-59
2022/06/07 10:33:13;;;;;;;1.00;0.70;;;;;;;25.61;44.86;98535.97;5037796;27;103281;-59
2022/06/07 10:35:48;;;;;;;1.10;0.50;;;;;;;25.93;44.42;98524.28;5029146;27;104154;-60
2022/06/07 10:38:36;;;;;;;1.27;0.70;;;;;;;25.41;44.83;98529.72;5031621;27;102742;-59
2022/06/07 10:41:12;;;;;;;1.65;0.85;;;;;;;25.71;45.42;98530.97;5026925;27;104505;-59
2022/06/07 10:43:56;;;;;;;1.98;0.80;;;;;;;24.91;46.90;98533.88;5030337;27;103338;-60
2022/06/07 10:46:27;;;;;;;0.80;0.70;;;;;;;24.78;45.67;98533.81;5034355;27;103147;-59
2022/06/07 10:49:11;;;;;;;1.50;0.88;;;;;;;25.12;46.43;98536.38;5031286;27;103029;-60
2022/06/07 10:54:39;;;;;;;1.30;0.82;;;;;;;25.13;46.77;98529.94;5036785;27;104200;-60
2022/06/07 10:57:14;;;;;;;1.00;0.60;;;;;;;25.36;48.11;98530.38;5034681;27;103226;-60
2022/06/07 10:59:45;;;;;;;0.95;0.60;;;;;;;26.03;45.70;98517.56;5028009;27;102634;-60
2022/06/07 11:02:22;;;;;;;1.50;0.63;;;;;;;26.99;45.95;98520.03;5036694;27;102973;-59
2022/06/07 11:10:38;;;;;;;1.50;0.80;;;;;;;26.68;44.08;98505.63;5035068;27;102795;-60
2022/06/07 11:13:18;;;;;;;1.80;0.70;;;;;;;25.42;44.76;98515.19;5038523;27;104019;-65
2022/06/07 11:15:58;;;;;;;5.75;1.05;;;;;;;24.90;46.99;98515.97;5036077;27;103775;-65
2022/06/07 11:18:27;;;;;;;1.27;0.68;;;;;;;25.98;43.54;98509.25;5036060;27;103222;-66
2022/06/07 11:21:27;;;;;;;2.95;0.60;;;;;;;25.76;43.75;98506.00;5035759;27;102608;-65
2022/06/07 11:24:17;;;;;;;2.60;0.80;;;;;;;25.06;44.24;98503.97;5037067;27;102818;-66
2022/06/07 11:27:21;;;;;;;2.60;0.80;;;;;;;24.91;47.58;98500.59;5037194;27;103235;-65
2022/06/07 11:29:49;;;;;;;1.00;0.70;;;;;;;25.23;46.03;98497.94;5017388;27;104196;-65
2022/06/07 11:32:48;;;;;;;0.80;0.60;;;;;;;25.40;44.40;98501.03;5037238;27;103210;-66
2022/06/07 11:35:46;;;;;;;0.90;0.53;;;;;;;25.88;43.98;98498.91;5032786;27;102939;-66
2022/06/07 11:38:29;;;;;;;1.10;0.70;;;;;;;25.65;44.82;98493.97;5036803;27;103851;-66
2022/06/07 11:44:00;;;;;;;1.38;0.65;;;;;;;25.62;44.74;98494.38;5033342;27;102853;-66
2022/06/07 11:46:39;;;;;;;1.52;0.63;;;;;;;25.93;44.48;98486.38;5037019;27;104195;-66
2022/06/07 11:49:43;;;;;;;0.90;0.70;;;;;;;26.14;44.91;98487.16;5035597;27;104267;-66
2022/06/07 11:52:27;;;;;;;1.63;0.70;;;;;;;25.75;45.31;98488.94;5023413;27;104383;-66
2022/06/07 11:54:58;;;;;;;1.50;0.70;;;;;;;26.54;44.05;98485.06;5036700;27;102670;-66
2022/06/07 11:58:00;;;;;;;0.93;0.80;;;;;;;27.05;44.60;98481.22;5034259;27;103972;-66
2022/06/07 12:00:50;;;;;;;2.70;0.70;;;;;;;25.06;47.19;98483.16;5025230;27;103491;-66
2022/06/07 12:03:35;;;;;;;1.75;0.98;;;;;;;23.80;49.23;98490.25;5043064;27;103199;-65
2022/06/07 12:06:21;;;;;;;2.03;0.80;;;;;;;23.83;50.00;98479.88;5043821;27;102638;-68
2022/06/07 12:08:56;;;;;;;2.67;1.00;;;;;;;23.71;49.35;98486.03;5039374;27;103558;-68
2022/06/07 12:11:27;;;;;;;1.70;0.90;;;;;;;23.60;49.00;98480.19;5033082;27;104149;-68
2022/06/07 12:14:20;;;;;;;0.70;0.70;;;;;;;23.48;50.58;98470.97;5039704;27;104066;-68
2022/06/07 12:16:55;;;;;;;1.70;1.03;;;;;;;23.41;51.69;98475.47;5031181;27;102821;-68
2022/06/07 12:19:26;;;;;;;1.90;1.02;;;;;;;23.07;51.66;98472.72;5037695;27;102710;-69
2022/06/07 12:21:58;;;;;;;2.35;0.80;;;;;;;23.23;50.85;98472.44;5039576;27;103938;-68
2022/06/07 12:24:29;;;;;;;0.80;0.70;;;;;;;24.04;50.42;98468.13;5038090;27;104170;-68
2022/06/07 12:26:57;;;;;;;2.15;0.90;;;;;;;24.41;49.53;98467.69;5040789;27;102788;-69
2022/06/07 12:29:27;;;;;;;1.55;1.10;;;;;;;23.92;49.84;98475.13;5029886;27;102953;-68